Time;durP1;ratioP1;P1;durP2;ratioP2;P2;SDS_P1;SDS_P2;PMS_P1;PMS_P2;Temp;Humidity;BMP_temperature;BMP_pressure;BME280_temperature;BME280_humidity;BME280_pressure;Samples;Min_cycle;Max_cycle;Signal;HPM_P1;HPM_P2
2024/04/10 03:45:28;;;;;;;5.07;2.37;;;14.70;92.70;;;;;;5382600;21;20511;-31
2024/04/10 03:47:54;;;;;;;7.70;2.53;;;14.70;92.80;;;;;;5286293;26;20856;-31
2024/04/10 03:50:20;;;;;;;12.77;3.40;;;14.70;92.80;;;;;;5262481;27;20773;-31
2024/04/10 03:52:46;;;;;;;7.53;2.07;;;14.70;92.80;;;;;;5200254;27;20572;-31
2024/04/10 03:55:14;;;;;;;7.07;2.23;;;14.70;92.80;;;;;;5194135;27;20931;-31
2024/04/10 03:57:40;;;;;;;5.90;2.20;;;14.70;92.80;;;;;;5247424;27;20528;-31
2024/04/10 04:00:10;;;;;;;5.87;2.13;;;14.70;92.80;;;;;;5234806;27;20470;-31
2024/04/10 04:02:39;;;;;;;8.37;2.60;;;14.70;92.80;;;;;;5232513;27;20753;-31
2024/04/10 04:05:06;;;;;;;6.13;1.87;;;14.70;92.80;;;;;;5241383;27;20812;-31
2024/04/10 04:07:32;;;;;;;5.20;1.80;;;14.70;92.70;;;;;;5211339;27;20546;-31
2024/04/10 04:09:58;;;;;;;5.30;2.00;;;14.70;92.70;;;;;;5196226;27;20474;-31
2024/04/10 04:12:27;;;;;;;8.43;2.43;;;14.70;92.60;;;;;;5243869;27;20472;-31
2024/04/10 04:14:52;;;;;;;10.60;2.37;;;14.70;92.60;;;;;;5206595;27;20547;-31
2024/04/10 04:17:19;;;;;;;6.63;2.40;;;14.70;92.60;;;;;;5227570;27;20541;-31
2024/04/10 04:19:45;;;;;;;8.10;2.50;;;14.70;92.60;;;;;;5240163;27;20521;-38
2024/04/10 04:22:11;;;;;;;5.37;2.10;;;14.70;92.60;;;;;;5235227;27;20528;-31
2024/04/10 04:24:37;;;;;;;5.30;2.20;;;14.70;92.60;;;;;;5233103;27;20471;-31
2024/04/10 04:27:05;;;;;;;5.53;1.80;;;14.60;92.60;;;;;;5241718;27;20473;-31
2024/04/10 04:29:33;;;;;;;5.00;2.60;;;14.60;92.60;;;;;;5231214;27;20599;-31
2024/04/10 04:32:02;;;;;;;7.40;2.00;;;14.60;92.60;;;;;;5227660;27;20529;-32
2024/04/10 04:34:28;;;;;;;4.30;2.20;;;14.60;92.60;;;;;;5194603;27;20819;-32
2024/04/10 04:36:54;;;;;;;5.23;2.53;;;14.60;92.60;;;;;;5236124;27;21237;-31
2024/04/10 04:39:20;;;;;;;5.93;2.30;;;14.60;92.60;;;;;;5241647;27;20528;-31
2024/04/10 04:41:46;;;;;;;6.80;2.17;;;14.60;92.60;;;;;;5251183;27;20257;-31
2024/04/10 04:44:12;;;;;;;5.53;2.13;;;14.60;92.60;;;;;;5235463;27;20476;-31
2024/04/10 04:46:38;;;;;;;5.20;2.47;;;14.60;92.70;;;;;;5235799;27;21170;-31
2024/04/10 04:49:05;;;;;;;6.67;2.23;;;14.60;92.70;;;;;;5188610;27;20488;-31
2024/04/10 04:51:32;;;;;;;6.30;2.00;;;14.60;92.70;;;;;;5202310;27;20546;-31
2024/04/10 04:53:58;;;;;;;6.63;2.50;;;14.60;92.70;;;;;;5224873;27;20534;-31
2024/04/10 04:56:26;;;;;;;3.93;1.90;;;14.60;92.80;;;;;;5221102;27;20477;-31
2024/04/10 04:58:52;;;;;;;7.90;2.30;;;14.60;92.80;;;;;;5222462;27;20759;-31
2024/04/10 05:01:18;;;;;;;7.97;2.57;;;14.60;92.80;;;;;;5181615;27;20828;-31
2024/04/10 05:06:31;;;;;;;3.30;2.17;;;14.50;92.70;;;;;;5216452;27;20522;-31
2024/04/10 05:08:59;;;;;;;5.70;2.03;;;14.50;92.70;;;;;;5238251;27;21130;-31
2024/04/10 05:11:25;;;;;;;4.53;2.20;;;14.50;92.80;;;;;;5253023;27;20476;-31
2024/04/10 05:13:51;;;;;;;5.50;2.03;;;14.50;92.80;;;;;;5231203;27;20758;-31
2024/04/10 05:16:17;;;;;;;5.17;1.83;;;14.50;92.80;;;;;;5224035;27;20554;-31
2024/04/10 05:18:45;;;;;;;8.10;2.17;;;14.50;92.90;;;;;;5237713;27;21460;-31
2024/04/10 05:21:11;;;;;;;7.10;2.10;;;14.50;92.90;;;;;;5244704;27;20501;-31
2024/04/10 05:23:37;;;;;;;6.63;2.20;;;14.50;92.90;;;;;;5256922;27;20855;-31
2024/04/10 05:26:04;;;;;;;3.90;2.13;;;14.50;92.90;;;;;;5238333;27;20596;-31
2024/04/10 05:28:32;;;;;;;4.40;2.30;;;14.50;92.90;;;;;;5235243;27;20471;-31
2024/04/10 05:31:08;;;;;;;5.37;2.23;;;14.50;92.90;;;;;;5238697;27;20961;-31
2024/04/10 05:33:35;;;;;;;4.83;2.50;;;14.50;92.90;;;;;;5244069;27;21054;-32
2024/04/10 05:36:03;;;;;;;4.97;2.20;;;14.40;92.80;;;;;;5227589;27;20523;-31
2024/04/10 05:38:30;;;;;;;9.67;2.20;;;14.40;92.80;;;;;;5232407;27;21186;-31
2024/04/10 05:40:57;;;;;;;4.80;1.90;;;14.40;92.90;;;;;;5240207;27;20542;-31
2024/04/10 05:43:23;;;;;;;6.00;2.30;;;14.40;92.90;;;;;;5203280;27;20475;-31
2024/04/10 05:45:56;;;;;;;5.83;2.20;;;14.40;92.90;;;;;;5232799;27;20913;-31
2024/04/10 05:48:31;;;;;;;5.20;2.50;;;14.40;93.00;;;;;;5258953;27;20555;-32
2024/04/10 05:51:01;;;;;;;4.53;1.40;;;14.40;92.90;;;;;;5226094;27;21092;-31
2024/04/10 05:53:27;;;;;;;3.90;2.10;;;14.40;93.00;;;;;;5222470;27;20519;-31
2024/04/10 05:55:53;;;;;;;3.53;1.80;;;14.40;93.00;;;;;;5243186;27;21126;-30
2024/04/10 05:58:20;;;;;;;9.43;2.10;;;14.40;93.00;;;;;;5238542;27;20472;-30
2024/04/10 06:00:46;;;;;;;10.70;2.47;;;14.40;93.00;;;;;;5227677;27;20670;-31
2024/04/10 06:03:16;;;;;;;7.10;2.40;;;14.40;93.10;;;;;;5240411;27;20521;-30
2024/04/10 06:05:42;;;;;;;5.53;2.27;;;14.40;93.10;;;;;;5206675;27;20465;-30
2024/04/10 06:08:08;;;;;;;4.00;2.20;;;14.30;93.10;;;;;;5247814;27;20538;-30
2024/04/10 06:10:34;;;;;;;5.00;2.07;;;14.30;93.10;;;;;;5234669;27;20470;-31
2024/04/10 06:13:02;;;;;;;6.47;2.03;;;14.30;93.10;;;;;;5235680;27;20471;-30
2024/04/10 06:15:28;;;;;;;8.27;2.03;;;14.30;93.10;;;;;;5207909;27;20551;-31
2024/04/10 06:17:57;;;;;;;5.23;2.40;;;14.30;93.10;;;;;;5206799;27;20481;-29
2024/04/10 06:20:23;;;;;;;3.87;1.87;;;14.30;93.10;;;;;;5232770;27;20485;-30
2024/04/10 06:22:49;;;;;;;6.53;2.20;;;14.30;93.20;;;;;;5236651;27;20482;-31
2024/04/10 06:25:17;;;;;;;5.53;2.00;;;14.30;93.20;;;;;;5236291;27;20482;-29
2024/04/10 06:27:45;;;;;;;3.17;2.53;;;14.30;93.20;;;;;;5230745;27;20470;-30
2024/04/10 06:30:12;;;;;;;6.30;2.07;;;14.30;93.20;;;;;;5242412;27;20529;-31
2024/04/10 06:32:38;;;;;;;7.67;2.47;;;14.30;93.20;;;;;;5230392;27;21023;-31
2024/04/10 06:35:05;;;;;;;5.57;2.03;;;14.30;93.20;;;;;;5224118;27;20648;-31
2024/04/10 06:37:33;;;;;;;7.10;2.27;;;14.30;93.20;;;;;;5243895;27;21000;-31
2024/04/10 06:40:05;;;;;;;6.23;2.30;;;14.30;93.30;;;;;;5222599;27;20996;-31
2024/04/10 06:42:33;;;;;;;9.00;2.10;;;14.30;93.30;;;;;;5230086;27;20530;-30
2024/04/10 06:45:00;;;;;;;6.37;2.27;;;14.30;93.30;;;;;;5230837;27;20524;-31
2024/04/10 06:47:26;;;;;;;5.63;2.00;;;14.30;93.30;;;;;;5232077;27;20466;-31
2024/04/10 06:49:54;;;;;;;5.77;2.23;;;14.30;93.30;;;;;;5230462;27;20520;-30
2024/04/10 06:52:20;;;;;;;5.07;2.10;;;14.30;93.30;;;;;;5225537;27;21145;-32
2024/04/10 06:54:49;;;;;;;3.83;1.90;;;14.30;93.40;;;;;;5236823;27;20458;-32
2024/04/10 06:57:15;;;;;;;8.67;2.33;;;14.30;93.40;;;;;;5232409;27;20487;-31
2024/04/10 06:59:41;;;;;;;5.63;2.50;;;14.30;93.40;;;;;;5227393;27;20566;-31
2024/04/10 07:02:11;;;;;;;8.03;2.30;;;14.30;93.40;;;;;;5231796;27;20919;-32
2024/04/10 07:04:36;;;;;;;8.93;2.23;;;14.30;93.40;;;;;;5228890;27;20628;-32
2024/04/10 07:07:06;;;;;;;8.13;2.17;;;14.30;93.40;;;;;;5225380;27;20450;-32
2024/04/10 07:09:32;;;;;;;7.50;2.00;;;14.20;93.40;;;;;;5206938;27;20514;-33
2024/04/10 07:11:58;;;;;;;5.93;2.83;;;14.30;93.40;;;;;;5229505;27;20597;-33
2024/04/10 07:14:24;;;;;;;5.43;3.23;;;14.20;93.40;;;;;;5227845;27;20936;-31
2024/04/10 07:16:51;;;;;;;5.40;2.33;;;14.20;93.40;;;;;;5218271;27;20934;-31
2024/04/10 07:19:17;;;;;;;8.00;2.20;;;14.30;93.40;;;;;;5230077;27;20565;-32
2024/04/10 07:21:46;;;;;;;9.47;2.73;;;14.20;93.40;;;;;;5229760;27;20930;-33
2024/04/10 07:24:14;;;;;;;4.17;2.10;;;14.20;93.40;;;;;;5235887;27;20237;-32
2024/04/10 07:26:40;;;;;;;7.70;2.50;;;14.20;93.40;;;;;;5233276;27;20510;-31
2024/04/10 07:29:06;;;;;;;8.23;2.40;;;14.30;93.40;;;;;;5234993;27;20887;-31
2024/04/10 07:31:39;;;;;;;5.67;2.33;;;14.20;93.40;;;;;;5236757;27;20412;-33
2024/04/10 07:34:06;;;;;;;7.77;2.50;;;14.20;93.40;;;;;;5229672;27;20627;-32
2024/04/10 07:36:33;;;;;;;4.60;2.00;;;14.20;93.40;;;;;;5241135;27;20482;-32
2024/04/10 07:39:00;;;;;;;4.90;2.00;;;14.20;93.40;;;;;;5236577;27;20483;-30
2024/04/10 07:41:29;;;;;;;8.03;2.30;;;14.20;93.50;;;;;;5241740;27;20884;-32
2024/04/10 07:43:55;;;;;;;5.93;2.23;;;14.20;93.50;;;;;;5193659;27;20510;-29
2024/04/10 07:47:52;;;;;;;7.63;1.97;;;14.20;93.50;;;;;;5452077;26;20664;-41
2024/04/10 07:50:19;;;;;;;7.77;2.40;;;14.20;93.50;;;;;;5395938;26;20835;-41
2024/04/10 07:52:45;;;;;;;5.30;2.53;;;14.20;93.50;;;;;;5381022;26;20456;-41
2024/04/10 07:55:12;;;;;;;8.07;2.80;;;14.20;93.60;;;;;;5383611;26;20478;-42
2024/04/10 07:57:41;;;;;;;11.50;2.83;;;14.20;93.60;;;;;;5378519;26;20662;-41
2024/04/10 08:00:11;;;;;;;7.50;2.33;;;14.20;93.50;;;;;;5367801;26;20522;-38
2024/04/10 08:02:39;;;;;;;7.63;2.03;;;14.20;93.60;;;;;;5347829;26;20591;-41
2024/04/10 08:05:09;;;;;;;4.00;2.17;;;14.20;93.60;;;;;;5375400;26;20824;-41
2024/04/10 08:07:39;;;;;;;8.60;2.20;;;14.20;93.60;;;;;;5375738;26;20464;-41
2024/04/10 08:10:08;;;;;;;5.50;2.40;;;14.20;93.60;;;;;;5372537;26;20548;-42
2024/04/10 08:12:34;;;;;;;6.40;2.27;;;14.30;93.60;;;;;;5374620;26;20472;-41
2024/04/10 08:15:01;;;;;;;5.60;2.20;;;14.30;93.60;;;;;;5378055;26;20647;-41
2024/04/10 08:17:27;;;;;;;4.93;2.60;;;14.30;93.60;;;;;;5373307;26;20901;-42
2024/04/10 08:19:53;;;;;;;8.83;2.90;;;14.30;93.60;;;;;;5375926;26;20484;-41
2024/04/10 08:22:20;;;;;;;7.57;3.03;;;14.30;93.60;;;;;;5377328;26;20635;-41
2024/04/10 08:24:46;;;;;;;9.10;2.13;;;14.30;93.60;;;;;;5376419;26;20848;-41
2024/04/10 08:27:12;;;;;;;6.70;2.37;;;14.30;93.60;;;;;;5377295;26;20482;-41
2024/04/10 08:29:41;;;;;;;9.33;2.13;;;14.30;93.60;;;;;;5376695;26;20634;-41
2024/04/10 08:32:07;;;;;;;5.60;2.90;;;14.30;93.60;;;;;;5378342;26;20468;-41
2024/04/10 08:34:33;;;;;;;7.10;2.73;;;14.30;93.60;;;;;;5349742;26;21017;-39
2024/04/10 08:36:59;;;;;;;5.37;2.30;;;14.30;93.60;;;;;;5377084;26;20460;-42
2024/04/10 08:39:27;;;;;;;4.50;2.17;;;14.30;93.60;;;;;;5344629;26;20843;-39
2024/04/10 08:41:55;;;;;;;2.70;2.07;;;14.30;93.50;;;;;;5375953;26;20968;-38
2024/04/10 08:44:27;;;;;;;7.13;2.60;;;14.30;93.50;;;;;;5406551;26;20483;-38
2024/04/10 08:46:58;;;;;;;10.30;2.33;;;14.30;93.60;;;;;;5382218;26;20611;-44
2024/04/10 08:49:26;;;;;;;8.70;2.70;;;14.30;93.50;;;;;;5374188;26;20534;-42
2024/04/10 08:51:53;;;;;;;9.77;3.53;;;14.30;93.60;;;;;;5371765;26;20492;-41
2024/04/10 08:54:21;;;;;;;6.37;2.40;;;14.30;93.50;;;;;;5378113;26;21305;-40
2024/04/10 08:56:52;;;;;;;6.53;2.50;;;14.30;93.60;;;;;;5376156;26;20621;-40
2024/04/10 08:59:20;;;;;;;6.30;2.00;;;14.30;93.40;;;;;;5330770;26;20850;-38
2024/04/10 09:01:46;;;;;;;5.00;2.67;;;14.30;93.40;;;;;;5362623;26;20519;-40
2024/04/10 09:04:13;;;;;;;6.27;2.50;;;14.40;93.50;;;;;;5363659;26;20523;-40
2024/04/10 09:06:40;;;;;;;11.10;3.17;;;14.40;93.50;;;;;;5363731;26;20526;-41
2024/04/10 09:09:09;;;;;;;10.40;2.60;;;14.40;93.50;;;;;;5360292;26;20518;-38
2024/04/10 09:11:40;;;;;;;8.03;3.23;;;14.40;93.50;;;;;;5363267;26;20886;-40
2024/04/10 09:14:11;;;;;;;5.60;2.57;;;14.40;93.40;;;;;;5362426;26;21035;-40
2024/04/10 09:16:37;;;;;;;6.37;2.50;;;14.40;93.40;;;;;;5353591;26;20996;-40
2024/04/10 09:19:11;;;;;;;10.00;2.70;;;14.50;93.40;;;;;;5364145;26;20582;-38
2024/04/10 09:21:40;;;;;;;8.83;2.60;;;14.50;93.30;;;;;;5348987;26;20465;-41
2024/04/10 09:24:08;;;;;;;7.20;2.53;;;14.50;93.10;;;;;;5363363;26;20611;-39
2024/04/10 09:26:39;;;;;;;7.17;2.63;;;14.50;93.10;;;;;;5351019;26;20468;-36
2024/04/10 09:29:11;;;;;;;3.70;2.20;;;14.50;93.00;;;;;;5362331;26;20542;-39
2024/04/10 09:31:38;;;;;;;6.73;2.40;;;14.50;93.00;;;;;;5353414;26;21078;-41
2024/04/10 09:34:04;;;;;;;6.00;2.47;;;14.50;92.90;;;;;;5377143;26;20546;-41
2024/04/10 09:36:33;;;;;;;4.33;2.27;;;14.60;92.90;;;;;;5360608;26;20528;-40
2024/04/10 09:39:00;;;;;;;5.70;2.47;;;14.60;92.80;;;;;;5361815;26;20990;-41
2024/04/10 09:41:31;;;;;;;6.80;2.57;;;14.60;92.70;;;;;;5361339;26;20527;-40
2024/04/10 09:43:58;;;;;;;6.90;2.87;;;14.60;92.60;;;;;;5359969;26;20631;-37
2024/04/10 09:46:35;;;;;;;4.97;2.77;;;14.60;92.60;;;;;;5360364;26;20480;-41
2024/04/10 09:49:11;;;;;;;4.47;2.53;;;14.60;92.50;;;;;;5356801;26;20456;-39
2024/04/10 09:51:42;;;;;;;4.23;2.57;;;14.60;92.40;;;;;;5359635;26;20990;-41
2024/04/10 09:54:09;;;;;;;4.67;2.47;;;14.60;92.10;;;;;;5358119;26;21172;-40
2024/04/10 09:56:37;;;;;;;4.83;2.27;;;14.70;91.80;;;;;;5355852;26;20592;-41
2024/04/10 09:59:06;;;;;;;9.03;2.67;;;14.70;92.00;;;;;;5359444;26;21167;-41
2024/04/10 10:01:32;;;;;;;6.30;2.50;;;14.70;92.20;;;;;;5359456;26;20464;-38
2024/04/10 10:03:58;;;;;;;5.30;2.83;;;14.70;92.20;;;;;;5351660;26;21083;-40
2024/04/10 10:06:31;;;;;;;6.37;2.20;;;14.80;92.10;;;;;;5360997;26;21570;-41
2024/04/10 10:08:58;;;;;;;3.57;2.33;;;14.80;92.00;;;;;;5358960;26;20476;-38
2024/04/10 10:11:27;;;;;;;3.57;2.60;;;14.80;91.90;;;;;;5361922;26;20469;-40
2024/04/10 10:14:02;;;;;;;5.20;2.33;;;14.80;91.80;;;;;;5353486;26;20468;-40
2024/04/10 10:16:31;;;;;;;4.73;2.60;;;14.80;91.50;;;;;;5356717;26;20524;-41
2024/04/10 10:19:00;;;;;;;5.83;2.50;;;14.90;91.50;;;;;;5361103;26;20459;-38
2024/04/10 10:21:27;;;;;;;5.70;2.03;;;14.90;91.60;;;;;;5336984;26;21081;-40
2024/04/10 10:24:06;;;;;;;5.67;2.60;;;14.90;91.70;;;;;;5394396;26;20604;-38
2024/04/10 10:26:33;;;;;;;7.30;2.00;;;14.90;91.60;;;;;;5364855;26;20496;-41
2024/04/10 10:29:07;;;;;;;4.33;2.13;;;14.90;91.50;;;;;;5361576;26;20536;-41
2024/04/10 10:31:37;;;;;;;6.83;2.67;;;15.00;91.30;;;;;;5367053;26;20791;-40
2024/04/10 10:34:04;;;;;;;6.60;2.23;;;15.00;91.20;;;;;;5357806;26;20614;-42
2024/04/10 10:36:35;;;;;;;7.50;3.93;;;15.00;91.20;;;;;;5360058;26;20782;-43
2024/04/10 10:39:15;;;;;;;5.87;2.17;;;15.00;91.30;;;;;;5349295;26;20474;-42
2024/04/10 10:41:44;;;;;;;4.97;2.30;;;15.00;91.50;;;;;;5355442;26;20518;-42
2024/04/10 10:44:10;;;;;;;4.20;2.97;;;15.10;91.50;;;;;;5355598;26;20994;-42
2024/04/10 10:46:36;;;;;;;4.27;2.20;;;15.10;91.60;;;;;;5354830;26;20471;-42
2024/04/10 10:49:03;;;;;;;5.73;2.30;;;15.10;91.00;;;;;;5354442;26;20516;-42
2024/04/10 10:51:31;;;;;;;5.03;2.27;;;15.20;91.20;;;;;;5354483;26;20491;-42
2024/04/10 10:54:03;;;;;;;4.40;2.50;;;15.20;91.10;;;;;;5350800;26;20456;-42
2024/04/10 10:56:32;;;;;;;6.03;2.30;;;15.20;91.10;;;;;;5353348;26;20824;-42
2024/04/10 10:59:08;;;;;;;8.13;2.73;;;15.20;91.10;;;;;;5350964;26;20563;-42
2024/04/10 11:01:35;;;;;;;3.83;2.00;;;15.30;91.20;;;;;;5352663;26;20540;-42
2024/04/10 11:04:16;;;;;;;3.00;1.73;;;15.30;90.90;;;;;;5355666;26;20859;-42
2024/04/10 11:06:45;;;;;;;4.30;2.33;;;15.30;91.20;;;;;;5356672;26;20585;-42
2024/04/10 11:09:17;;;;;;;4.57;1.87;;;15.30;91.30;;;;;;5357720;26;20524;-42
2024/04/10 11:11:44;;;;;;;4.50;2.40;;;15.40;91.20;;;;;;5357497;26;20484;-42
2024/04/10 11:14:23;;;;;;;5.30;2.10;;;15.40;91.00;;;;;;5329874;26;20470;-42
2024/04/10 11:16:59;;;;;;;4.03;2.10;;;15.50;90.90;;;;;;5361393;26;20519;-40
2024/04/10 11:19:25;;;;;;;4.03;1.67;;;15.40;90.60;;;;;;5356717;26;21029;-40
2024/04/10 11:21:54;;;;;;;2.60;1.87;;;15.50;90.60;;;;;;5350337;26;20527;-39
2024/04/10 11:24:20;;;;;;;4.13;2.03;;;15.50;90.50;;;;;;5355199;26;20519;-40
2024/04/10 11:26:52;;;;;;;6.43;2.10;;;15.50;90.50;;;;;;5358396;26;20626;-41
2024/04/10 11:29:18;;;;;;;3.27;2.00;;;15.60;90.50;;;;;;5356520;26;20680;-40
2024/04/10 11:31:44;;;;;;;3.30;2.00;;;15.60;90.30;;;;;;5354854;26;20444;-40
2024/04/10 11:34:10;;;;;;;3.53;1.80;;;15.60;90.20;;;;;;5354964;26;20466;-38
2024/04/10 11:36:38;;;;;;;2.70;1.73;;;15.60;90.30;;;;;;5358028;26;20465;-40
2024/04/10 11:39:04;;;;;;;4.60;2.13;;;15.70;90.40;;;;;;5357877;26;20480;-40
2024/04/10 11:41:35;;;;;;;5.60;1.80;;;15.70;90.30;;;;;;5357580;26;20624;-40
2024/04/10 11:44:02;;;;;;;3.27;1.63;;;15.70;90.50;;;;;;5354228;26;21175;-40
2024/04/10 11:46:28;;;;;;;4.33;2.07;;;15.70;90.10;;;;;;5356563;26;20536;-40
2024/04/10 11:48:55;;;;;;;2.97;1.80;;;15.80;89.40;;;;;;5359814;26;20476;-40
2024/04/10 11:51:20;;;;;;;3.27;2.10;;;15.70;88.50;;;;;;5359026;26;20580;-41
2024/04/10 11:53:49;;;;;;;5.10;2.70;;;15.80;88.90;;;;;;5360459;26;20723;-41
2024/04/10 11:56:15;;;;;;;4.37;2.10;;;15.80;89.00;;;;;;5357516;26;20863;-38
2024/04/10 11:58:41;;;;;;;2.13;1.90;;;15.80;88.60;;;;;;5359659;26;20456;-40
2024/04/10 12:01:07;;;;;;;5.20;2.20;;;15.90;88.00;;;;;;5360472;26;20601;-40
2024/04/10 12:03:33;;;;;;;2.83;1.93;;;15.90;88.30;;;;;;5357661;26;20460;-39
2024/04/10 12:14:48;;;;;;;3.53;1.97;;;16.00;87.60;;;;;;5244135;27;20724;-40
2024/04/10 12:17:16;;;;;;;5.00;2.10;;;16.00;87.60;;;;;;5246351;27;20522;-39
2024/04/10 12:19:44;;;;;;;4.17;1.90;;;16.00;87.60;;;;;;5247489;27;21133;-40
2024/04/10 12:22:10;;;;;;;3.33;1.83;;;16.00;87.60;;;;;;5316010;26;20464;-40
2024/04/10 12:24:36;;;;;;;2.47;1.60;;;16.10;87.60;;;;;;5353566;26;20466;-41
2024/04/10 12:27:03;;;;;;;3.10;1.60;;;16.10;87.40;;;;;;5351944;26;20492;-40
2024/04/10 12:29:29;;;;;;;4.07;2.40;;;16.10;87.50;;;;;;5354867;26;20607;-40
2024/04/10 12:31:55;;;;;;;3.33;2.73;;;16.20;87.00;;;;;;5355820;26;20460;-40
2024/04/10 12:34:24;;;;;;;3.13;2.00;;;16.20;86.60;;;;;;5358354;26;20565;-40
2024/04/10 12:39:54;;;;;;;2.87;1.70;;;16.20;85.00;;;;;;5387145;26;20842;-40
2024/04/10 12:42:20;;;;;;;5.23;1.80;;;16.30;86.30;;;;;;5357278;26;21652;-40
2024/04/10 12:44:46;;;;;;;3.50;1.57;;;16.30;85.00;;;;;;5373576;26;20627;-41
2024/04/10 12:47:18;;;;;;;4.37;2.10;;;16.30;85.00;;;;;;5357724;26;21061;-39
2024/04/10 12:49:44;;;;;;;2.07;1.40;;;16.40;84.90;;;;;;5325855;26;20552;-40
2024/04/10 12:52:10;;;;;;;1.90;1.47;;;16.40;84.80;;;;;;5356386;26;20580;-40
2024/04/10 12:54:37;;;;;;;4.93;1.70;;;16.40;84.70;;;;;;5360933;26;20461;-41
2024/04/10 12:57:04;;;;;;;4.60;1.80;;;16.50;83.90;;;;;;5359727;26;20579;-40
2024/04/10 12:59:30;;;;;;;3.97;1.90;;;16.50;83.90;;;;;;5354515;26;20792;-38
2024/04/10 13:02:05;;;;;;;3.50;1.40;;;16.50;83.90;;;;;;5334189;26;20488;-41
2024/04/10 13:04:33;;;;;;;3.27;2.00;;;16.60;84.20;;;;;;5351029;26;20994;-42
2024/04/10 13:07:00;;;;;;;2.10;1.53;;;16.60;83.40;;;;;;5359145;26;20531;-42
2024/04/10 13:09:26;;;;;;;3.20;1.67;;;16.60;83.50;;;;;;5356545;26;20891;-42
2024/04/10 13:11:52;;;;;;;4.03;1.83;;;16.70;83.70;;;;;;5328223;26;20452;-42
2024/04/10 13:14:18;;;;;;;9.13;2.13;;;16.70;84.20;;;;;;5360174;26;20480;-42
2024/04/10 13:16:44;;;;;;;4.80;1.87;;;16.70;84.00;;;;;;5355691;26;20509;-42
2024/04/10 13:19:13;;;;;;;4.77;2.30;;;16.80;84.10;;;;;;5353488;26;20474;-42
2024/04/10 13:21:39;;;;;;;4.50;1.73;;;16.80;84.10;;;;;;5357713;26;20477;-42
2024/04/10 13:24:05;;;;;;;3.93;1.50;;;16.80;84.10;;;;;;5323597;26;20917;-42
2024/04/10 13:26:31;;;;;;;3.00;1.50;;;16.80;84.30;;;;;;5357618;26;21372;-42
2024/04/10 13:28:57;;;;;;;1.90;1.63;;;16.90;84.70;;;;;;5360024;26;20532;-42
2024/04/10 13:31:23;;;;;;;5.30;2.10;;;16.90;84.60;;;;;;5356352;26;20242;-42
2024/04/10 13:34:01;;;;;;;3.83;1.70;;;17.00;84.70;;;;;;5446609;20;20465;-31
2024/04/10 13:36:27;;;;;;;3.70;1.60;;;17.00;84.40;;;;;;5288959;26;20579;-29
2024/04/10 13:38:56;;;;;;;4.93;1.83;;;17.00;84.20;;;;;;5281260;27;21390;-31
2024/04/10 13:41:24;;;;;;;4.60;1.93;;;17.00;83.60;;;;;;5290636;26;20558;-32
2024/04/10 13:43:52;;;;;;;4.60;1.60;;;17.00;82.00;;;;;;5288547;27;20565;-32
2024/04/10 13:46:18;;;;;;;4.57;1.60;;;17.10;82.10;;;;;;5289809;26;21017;-32
2024/04/10 13:48:48;;;;;;;4.70;1.70;;;17.10;82.10;;;;;;5290524;26;20563;-32
2024/04/10 13:51:24;;;;;;;4.27;1.47;;;17.20;82.40;;;;;;5289743;26;20475;-32
2024/04/10 13:53:50;;;;;;;6.27;1.73;;;17.20;82.40;;;;;;5290223;26;20515;-32
2024/04/10 13:56:19;;;;;;;2.57;1.67;;;17.20;82.40;;;;;;5291502;26;20475;-33
2024/04/10 13:58:46;;;;;;;5.17;1.40;;;17.20;81.70;;;;;;5290127;26;20535;-32
2024/04/10 14:01:20;;;;;;;4.80;1.37;;;17.30;82.50;;;;;;5287148;26;20942;-32
2024/04/10 14:03:48;;;;;;;6.90;1.60;;;17.30;81.90;;;;;;5259711;26;20482;-31
2024/04/10 14:06:15;;;;;;;3.10;1.70;;;17.30;81.90;;;;;;5315524;26;20874;-32
2024/04/10 14:08:44;;;;;;;4.30;1.40;;;17.30;82.10;;;;;;5288954;26;20467;-31
2024/04/10 14:11:10;;;;;;;3.20;1.83;;;17.40;82.10;;;;;;5290759;26;20602;-33
2024/04/10 14:13:37;;;;;;;4.63;1.70;;;17.40;82.00;;;;;;5291914;26;20479;-32
2024/04/10 14:16:04;;;;;;;3.13;1.57;;;17.40;81.90;;;;;;5288024;27;21241;-33
2024/04/10 14:18:30;;;;;;;2.00;1.33;;;17.40;81.80;;;;;;5289774;27;20488;-32
2024/04/10 14:21:07;;;;;;;7.40;1.47;;;17.50;82.00;;;;;;5290607;26;20471;-32
2024/04/10 14:23:34;;;;;;;4.13;1.17;;;17.50;82.10;;;;;;5291558;27;20886;-29
2024/04/10 14:26:01;;;;;;;3.53;1.40;;;17.50;82.20;;;;;;5290803;26;20479;-29
2024/04/10 14:28:29;;;;;;;4.30;1.73;;;17.50;82.40;;;;;;5294743;26;20566;-30
2024/04/10 14:30:55;;;;;;;5.13;1.77;;;17.50;82.60;;;;;;5321176;26;20534;-27
2024/04/10 14:33:21;;;;;;;4.40;1.70;;;17.60;82.90;;;;;;5291815;26;20471;-30
2024/04/10 14:35:47;;;;;;;3.90;1.60;;;17.60;82.60;;;;;;5287403;27;20467;-30
2024/04/10 14:38:16;;;;;;;1.97;1.50;;;17.60;82.50;;;;;;5289559;27;20527;-31
2024/04/10 14:40:42;;;;;;;2.50;1.37;;;17.60;82.60;;;;;;5291164;26;20564;-32
2024/04/10 14:43:08;;;;;;;4.00;1.13;;;17.60;82.60;;;;;;5289547;27;20511;-32
2024/04/10 14:45:38;;;;;;;2.80;1.70;;;17.70;82.90;;;;;;5289794;27;20483;-30
2024/04/10 14:48:04;;;;;;;3.50;1.60;;;17.70;82.30;;;;;;5292206;26;20463;-32
2024/04/10 14:50:32;;;;;;;6.10;1.57;;;17.70;81.50;;;;;;5290745;26;20569;-32
2024/04/10 14:52:58;;;;;;;1.90;1.10;;;17.70;80.60;;;;;;5292571;26;20472;-30
2024/04/10 14:55:27;;;;;;;2.60;1.40;;;17.80;81.10;;;;;;5287174;27;20602;-30
2024/04/10 14:57:55;;;;;;;4.50;1.77;;;17.80;81.30;;;;;;5293026;26;20550;-30
2024/04/10 15:00:22;;;;;;;3.27;1.40;;;17.80;81.50;;;;;;5292859;26;20476;-31
2024/04/10 15:02:51;;;;;;;3.33;1.33;;;17.80;81.30;;;;;;5289744;26;20463;-32
2024/04/10 15:05:22;;;;;;;2.63;1.37;;;17.90;81.30;;;;;;5290839;27;20535;-32
2024/04/10 15:07:49;;;;;;;2.40;1.23;;;17.90;81.30;;;;;;5292065;27;20479;-33
2024/04/10 15:10:15;;;;;;;3.90;1.37;;;17.90;81.20;;;;;;5287877;26;20477;-33
2024/04/10 15:12:41;;;;;;;3.13;1.20;;;17.90;81.20;;;;;;5290771;26;20567;-32
2024/04/10 15:15:10;;;;;;;1.83;1.30;;;17.90;81.30;;;;;;5286437;27;21267;-32
2024/04/10 15:17:36;;;;;;;2.80;1.83;;;18.00;81.50;;;;;;5291417;26;20569;-35
2024/04/10 15:20:06;;;;;;;3.30;1.37;;;18.00;81.50;;;;;;5287499;26;20856;-30
2024/04/10 15:22:34;;;;;;;4.13;1.60;;;18.00;81.50;;;;;;5290000;26;20467;-30
2024/04/10 15:25:00;;;;;;;2.47;1.00;;;18.00;81.20;;;;;;5291779;26;20523;-33
2024/04/10 15:27:26;;;;;;;4.60;1.60;;;18.10;80.80;;;;;;5289620;26;20475;-31
2024/04/10 15:29:52;;;;;;;3.80;1.57;;;18.10;80.70;;;;;;5317221;26;20467;-30
2024/04/10 15:32:18;;;;;;;7.90;1.33;;;18.10;80.30;;;;;;5291007;26;20516;-30
2024/04/10 15:34:47;;;;;;;4.67;1.83;;;18.20;80.20;;;;;;5315660;26;20486;-35
2024/04/10 15:37:14;;;;;;;3.20;1.67;;;18.20;79.40;;;;;;5283876;27;20477;-32
2024/04/10 15:39:40;;;;;;;1.90;1.40;;;18.20;79.30;;;;;;5291632;26;20539;-32
2024/04/10 15:42:06;;;;;;;3.57;1.87;;;18.30;79.80;;;;;;5290291;26;20511;-32
2024/04/10 15:44:32;;;;;;;5.67;1.60;;;18.30;80.10;;;;;;5289753;27;20286;-31
2024/04/10 15:46:58;;;;;;;3.50;1.20;;;18.30;80.50;;;;;;5289586;27;20551;-33
2024/04/10 15:49:26;;;;;;;2.20;1.03;;;18.30;80.50;;;;;;5286640;27;20487;-32
2024/04/10 15:51:52;;;;;;;1.73;1.23;;;18.30;80.50;;;;;;5288200;27;20476;-31
2024/04/10 15:54:18;;;;;;;2.37;1.30;;;18.30;80.70;;;;;;5298348;26;20526;-33
2024/04/10 15:56:45;;;;;;;2.20;1.60;;;18.40;80.10;;;;;;5286782;26;20849;-32
2024/04/10 15:59:15;;;;;;;3.30;1.60;;;18.40;79.60;;;;;;5288465;26;21192;-32
2024/04/10 16:01:41;;;;;;;4.90;1.43;;;18.40;79.70;;;;;;5287980;27;20582;-32
2024/04/10 16:04:07;;;;;;;3.47;1.30;;;18.50;80.00;;;;;;5306004;26;21120;-31
2024/04/10 16:06:33;;;;;;;2.30;1.10;;;18.50;79.20;;;;;;5287965;26;20485;-31
2024/04/10 16:08:59;;;;;;;3.07;1.27;;;18.60;79.60;;;;;;5290630;26;20620;-31
2024/04/10 16:11:27;;;;;;;2.83;1.43;;;18.60;79.10;;;;;;5286585;26;20555;-31
2024/04/10 16:13:56;;;;;;;2.83;1.20;;;18.60;79.60;;;;;;5291680;26;20586;-32
2024/04/10 16:16:22;;;;;;;1.80;1.30;;;18.70;80.00;;;;;;5259123;27;20498;-31
2024/04/10 16:18:48;;;;;;;1.90;1.23;;;18.70;80.10;;;;;;5291948;26;20490;-31
2024/04/10 16:21:14;;;;;;;1.97;1.27;;;18.70;80.10;;;;;;5278398;27;20479;-31
2024/04/10 16:23:47;;;;;;;2.40;1.23;;;18.80;79.90;;;;;;5289839;26;20589;-32
2024/04/10 16:26:17;;;;;;;2.57;1.30;;;18.80;80.00;;;;;;5287635;27;20565;-32
2024/04/10 16:28:43;;;;;;;3.90;1.10;;;18.90;79.70;;;;;;5287753;26;21062;-32
2024/04/10 16:31:14;;;;;;;3.60;1.60;;;18.90;79.20;;;;;;5288383;26;20514;-32
2024/04/10 16:33:41;;;;;;;3.03;1.40;;;18.90;78.60;;;;;;5318199;26;21317;-36
2024/04/10 16:36:12;;;;;;;2.63;1.27;;;18.90;78.50;;;;;;5286429;26;21110;-30
2024/04/10 16:38:39;;;;;;;4.20;1.30;;;18.90;78.80;;;;;;5259329;27;20479;-32
2024/04/10 16:41:07;;;;;;;3.60;1.40;;;19.00;79.10;;;;;;5288053;27;20629;-31
2024/04/10 16:43:35;;;;;;;1.20;1.00;;;18.90;79.00;;;;;;5286759;27;20539;-32
2024/04/10 16:46:06;;;;;;;2.20;1.27;;;19.00;78.20;;;;;;5312200;26;20491;-30
2024/04/10 16:48:33;;;;;;;4.13;1.40;;;18.90;77.90;;;;;;5289998;26;20580;-33